Hauptseite
METAR-TAF:

METAR-TAF

Flughäfen :

Flughafen Lampang

Lampang, Thailand

Breite: 18-17N, Länge: 099-31E, Höhe: 241 m

Beobachtung

Neuester Wetterbericht von vor 12 Minuten, um 06:00 UTC
Wind 5 kt aus West/Südwest, variierte zwischen Süd/Südost und Nordwest
Temperatur 30°C
Luftfeuchtigkeit 52%
Luftdruck 1015 hPa
Sichtweite: 9000 m
Leicht bewölkt in der Höhe von 2500 ft

METAR: VTCL 230600Z 24005KT 160V310 9000 FEW025 30/19 Q1015 NOSIG

Zeit: 13:12 (06:12 UTC)

Prognose

Neuester Wetterbericht von vor 1 Stunde und 12 Minuten, um 05:00 UTC
Gültige Prognose vom 23 um 06 UTC bis 24 um 06 UTC
Wind 5 kt aus Südost
Sichtweite 10 km oder mehr
Leicht bewölkt in der Höhe von 3000 ft

TAF: VTCL 230500Z 2306/2406 14005KT 9999 FEW030

Wetterbeobachtungen und Prognosen von mehr als 4000 Flughäfen (METAR und TAF Bericht).

Die verfügbaren Stationen werden durch gelbe und rote Markierungen auf der Karte dargestellt.

Führen Sie die Maus auf sie, um den Namen der Station zu sehen.

Darauf klicken, um die Beobachtung von Wetterbeobachtungen und Prognosen zu sehen.

Um die Karte zu ändern : klicken Sie auf den grünen Tasten mit einem schwarzen Kreuz Zum Vergrößern, auf den grünen Button mit einem Gedankenstrich zu verkleinern, oder auf die grünen Pfeile für benachbarte Karten.


METAR-TAF: